Terminal Aerodrome Forecast
Issued by NWS

Home | Current Version | Previous Version | Text Only | Print | Product List | Glossary On
Versions: 1 2 3 4 5 6 7 8 9 10 11 12 13 14 15 16 17 18 19 20 21 22 23 24 25 26 27
000
FTUS41 KBTV 242035 AAA
TAFPBG
TAF AMD
KPBG 242035Z 2421/2518 35012KT 4SM -FZDZ BR OVC009
      TEMPO 2501/2504 5SM -FZRAPL BR OVC003
     FM250400 35006KT 5SM BR VCSH OVC015
     FM250900 33007KT P6SM VCSH OVC020
     FM251200 33006KT P6SM OVC020
     FM251500 32005KT P6SM SCT025=

USA.gov is the U.S. government's official web portal to all federal, state and local government web resources and services.